sensor_id;sensor_type;location;lat;lon;timestamp;P1;durP1;ratioP1;P2;durP2;ratioP2
7471;SDS011;3777;48.722;8.110;2022-12-01T00:02:21;25.33;;;13.77;;
7471;SDS011;3777;48.722;8.110;2022-12-01T00:04:49;23.67;;;14.23;;
7471;SDS011;3777;48.722;8.110;2022-12-01T00:07:16;23.83;;;14.13;;
7471;SDS011;3777;48.722;8.110;2022-12-01T00:09:43;24.40;;;14.27;;
7471;SDS011;3777;48.722;8.110;2022-12-01T00:12:29;24.50;;;15.03;;
7471;SDS011;3777;48.722;8.110;2022-12-01T00:14:56;24.30;;;15.20;;
7471;SDS011;3777;48.722;8.110;2022-12-01T00:17:26;22.70;;;13.87;;
7471;SDS011;3777;48.722;8.110;2022-12-01T00:19:54;23.37;;;14.87;;
7471;SDS011;3777;48.722;8.110;2022-12-01T00:22:21;26.67;;;14.30;;
7471;SDS011;3777;48.722;8.110;2022-12-01T00:24:48;24.67;;;14.33;;
7471;SDS011;3777;48.722;8.110;2022-12-01T00:27:15;22.17;;;13.20;;
7471;SDS011;3777;48.722;8.110;2022-12-01T00:29:44;23.47;;;13.47;;
7471;SDS011;3777;48.722;8.110;2022-12-01T00:32:11;26.17;;;13.73;;
7471;SDS011;3777;48.722;8.110;2022-12-01T00:34:38;21.97;;;13.30;;
7471;SDS011;3777;48.722;8.110;2022-12-01T00:37:05;20.97;;;12.43;;
7471;SDS011;3777;48.722;8.110;2022-12-01T00:39:32;22.13;;;13.40;;
7471;SDS011;3777;48.722;8.110;2022-12-01T00:41:59;19.47;;;12.37;;
7471;SDS011;3777;48.722;8.110;2022-12-01T00:44:26;20.77;;;12.73;;
7471;SDS011;3777;48.722;8.110;2022-12-01T00:46:54;20.97;;;13.40;;
7471;SDS011;3777;48.722;8.110;2022-12-01T00:49:21;20.37;;;12.27;;
7471;SDS011;3777;48.722;8.110;2022-12-01T00:51:48;21.13;;;12.77;;
7471;SDS011;3777;48.722;8.110;2022-12-01T00:54:15;21.47;;;11.60;;
7471;SDS011;3777;48.722;8.110;2022-12-01T00:56:42;19.97;;;12.40;;
7471;SDS011;3777;48.722;8.110;2022-12-01T00:59:09;22.03;;;12.83;;
7471;SDS011;3777;48.722;8.110;2022-12-01T01:01:37;22.77;;;13.30;;
7471;SDS011;3777;48.722;8.110;2022-12-01T01:04:05;21.27;;;12.13;;
7471;SDS011;3777;48.722;8.110;2022-12-01T01:06:32;19.17;;;12.17;;
7471;SDS011;3777;48.722;8.110;2022-12-01T01:08:59;20.57;;;12.90;;
7471;SDS011;3777;48.722;8.110;2022-12-01T01:11:26;20.67;;;12.07;;
7471;SDS011;3777;48.722;8.110;2022-12-01T01:13:53;20.23;;;12.00;;
7471;SDS011;3777;48.722;8.110;2022-12-01T01:16:20;18.33;;;11.47;;
7471;SDS011;3777;48.722;8.110;2022-12-01T01:18:48;18.67;;;11.60;;
7471;SDS011;3777;48.722;8.110;2022-12-01T01:21:17;17.57;;;11.00;;
7471;SDS011;3777;48.722;8.110;2022-12-01T01:23:46;18.67;;;11.60;;
7471;SDS011;3777;48.722;8.110;2022-12-01T01:26:14;18.97;;;12.03;;
7471;SDS011;3777;48.722;8.110;2022-12-01T01:28:42;18.23;;;11.00;;
7471;SDS011;3777;48.722;8.110;2022-12-01T01:31:10;20.33;;;11.60;;
7471;SDS011;3777;48.722;8.110;2022-12-01T01:33:38;16.83;;;11.20;;
7471;SDS011;3777;48.722;8.110;2022-12-01T01:36:05;19.67;;;11.37;;
7471;SDS011;3777;48.722;8.110;2022-12-01T01:38:34;17.93;;;11.10;;
7471;SDS011;3777;48.722;8.110;2022-12-01T01:41:01;18.63;;;11.07;;
7471;SDS011;3777;48.722;8.110;2022-12-01T01:43:39;17.53;;;10.90;;
7471;SDS011;3777;48.722;8.110;2022-12-01T01:46:09;17.33;;;11.13;;
7471;SDS011;3777;48.722;8.110;2022-12-01T01:48:37;15.53;;;11.17;;
7471;SDS011;3777;48.722;8.110;2022-12-01T01:51:07;16.00;;;11.13;;
7471;SDS011;3777;48.722;8.110;2022-12-01T01:53:36;16.37;;;11.07;;
7471;SDS011;3777;48.722;8.110;2022-12-01T01:56:03;17.77;;;11.17;;
7471;SDS011;3777;48.722;8.110;2022-12-01T01:58:33;16.00;;;11.23;;
7471;SDS011;3777;48.722;8.110;2022-12-01T02:01:02;16.03;;;11.10;;
7471;SDS011;3777;48.722;8.110;2022-12-01T02:03:29;15.77;;;10.50;;
7471;SDS011;3777;48.722;8.110;2022-12-01T02:05:57;16.00;;;10.60;;
7471;SDS011;3777;48.722;8.110;2022-12-01T02:08:25;14.57;;;10.17;;
7471;SDS011;3777;48.722;8.110;2022-12-01T02:10:58;15.37;;;10.67;;
7471;SDS011;3777;48.722;8.110;2022-12-01T02:13:41;16.50;;;10.17;;
7471;SDS011;3777;48.722;8.110;2022-12-01T02:16:17;15.23;;;10.33;;
7471;SDS011;3777;48.722;8.110;2022-12-01T02:18:52;16.37;;;10.80;;
7471;SDS011;3777;48.722;8.110;2022-12-01T02:21:28;16.40;;;10.63;;
7471;SDS011;3777;48.722;8.110;2022-12-01T02:24:10;15.70;;;10.63;;
7471;SDS011;3777;48.722;8.110;2022-12-01T02:27:01;15.27;;;10.70;;
7471;SDS011;3777;48.722;8.110;2022-12-01T02:32:38;14.10;;;9.57;;
7471;SDS011;3777;48.722;8.110;2022-12-01T02:35:13;14.77;;;10.60;;
7471;SDS011;3777;48.722;8.110;2022-12-01T02:37:45;14.43;;;10.43;;
7471;SDS011;3777;48.722;8.110;2022-12-01T02:40:21;16.27;;;10.13;;
7471;SDS011;3777;48.722;8.110;2022-12-01T02:42:54;16.07;;;10.67;;
7471;SDS011;3777;48.722;8.110;2022-12-01T02:45:29;16.23;;;10.93;;
7471;SDS011;3777;48.722;8.110;2022-12-01T02:48:04;16.67;;;11.37;;
7471;SDS011;3777;48.722;8.110;2022-12-01T02:50:34;14.33;;;10.37;;
7471;SDS011;3777;48.722;8.110;2022-12-01T02:53:03;14.60;;;10.43;;
7471;SDS011;3777;48.722;8.110;2022-12-01T02:55:33;14.90;;;10.53;;
7471;SDS011;3777;48.722;8.110;2022-12-01T02:58:00;17.77;;;11.17;;
7471;SDS011;3777;48.722;8.110;2022-12-01T03:00:28;15.40;;;10.63;;
7471;SDS011;3777;48.722;8.110;2022-12-01T03:03:04;17.30;;;10.50;;
7471;SDS011;3777;48.722;8.110;2022-12-01T03:05:48;15.40;;;10.50;;
7471;SDS011;3777;48.722;8.110;2022-12-01T03:08:25;15.17;;;10.70;;
7471;SDS011;3777;48.722;8.110;2022-12-01T03:11:01;15.77;;;10.13;;
7471;SDS011;3777;48.722;8.110;2022-12-01T03:13:31;17.50;;;11.13;;
7471;SDS011;3777;48.722;8.110;2022-12-01T03:16:07;14.17;;;10.30;;
7471;SDS011;3777;48.722;8.110;2022-12-01T03:18:41;17.13;;;11.00;;
7471;SDS011;3777;48.722;8.110;2022-12-01T03:21:14;16.13;;;11.03;;
7471;SDS011;3777;48.722;8.110;2022-12-01T03:23:49;16.70;;;11.33;;
7471;SDS011;3777;48.722;8.110;2022-12-01T03:26:18;17.43;;;11.60;;
7471;SDS011;3777;48.722;8.110;2022-12-01T03:28:48;18.53;;;11.40;;
7471;SDS011;3777;48.722;8.110;2022-12-01T03:31:19;18.37;;;12.07;;
7471;SDS011;3777;48.722;8.110;2022-12-01T03:33:54;17.30;;;12.07;;
7471;SDS011;3777;48.722;8.110;2022-12-01T03:36:24;17.00;;;11.87;;
7471;SDS011;3777;48.722;8.110;2022-12-01T03:38:54;17.57;;;11.73;;
7471;SDS011;3777;48.722;8.110;2022-12-01T03:41:26;20.30;;;12.40;;
7471;SDS011;3777;48.722;8.110;2022-12-01T03:44:03;17.37;;;11.63;;
7471;SDS011;3777;48.722;8.110;2022-12-01T03:46:35;17.97;;;11.90;;
7471;SDS011;3777;48.722;8.110;2022-12-01T03:49:10;17.10;;;11.43;;
7471;SDS011;3777;48.722;8.110;2022-12-01T03:51:39;17.63;;;12.50;;
7471;SDS011;3777;48.722;8.110;2022-12-01T03:54:15;17.87;;;11.53;;
7471;SDS011;3777;48.722;8.110;2022-12-01T03:56:47;18.43;;;12.20;;
7471;SDS011;3777;48.722;8.110;2022-12-01T03:59:19;19.57;;;12.60;;
7471;SDS011;3777;48.722;8.110;2022-12-01T04:01:48;18.40;;;12.40;;
7471;SDS011;3777;48.722;8.110;2022-12-01T04:04:18;19.90;;;12.63;;
7471;SDS011;3777;48.722;8.110;2022-12-01T04:06:46;18.63;;;12.27;;
7471;SDS011;3777;48.722;8.110;2022-12-01T04:09:15;19.23;;;13.17;;
7471;SDS011;3777;48.722;8.110;2022-12-01T04:11:42;20.43;;;12.70;;
7471;SDS011;3777;48.722;8.110;2022-12-01T04:14:26;18.80;;;12.17;;
7471;SDS011;3777;48.722;8.110;2022-12-01T04:16:54;18.93;;;12.53;;
7471;SDS011;3777;48.722;8.110;2022-12-01T04:19:22;19.07;;;12.67;;
7471;SDS011;3777;48.722;8.110;2022-12-01T04:21:49;20.50;;;12.80;;
7471;SDS011;3777;48.722;8.110;2022-12-01T04:24:16;19.53;;;13.40;;
7471;SDS011;3777;48.722;8.110;2022-12-01T04:26:43;19.97;;;13.07;;
7471;SDS011;3777;48.722;8.110;2022-12-01T04:29:11;22.67;;;14.90;;
7471;SDS011;3777;48.722;8.110;2022-12-01T04:31:38;20.37;;;13.40;;
7471;SDS011;3777;48.722;8.110;2022-12-01T04:34:06;20.73;;;13.67;;
7471;SDS011;3777;48.722;8.110;2022-12-01T04:36:36;19.83;;;13.33;;
7471;SDS011;3777;48.722;8.110;2022-12-01T04:39:03;19.77;;;13.23;;
7471;SDS011;3777;48.722;8.110;2022-12-01T04:41:30;21.30;;;14.23;;
7471;SDS011;3777;48.722;8.110;2022-12-01T04:43:57;20.17;;;13.47;;
7471;SDS011;3777;48.722;8.110;2022-12-01T04:46:23;19.23;;;13.30;;
7471;SDS011;3777;48.722;8.110;2022-12-01T04:48:50;20.90;;;13.53;;
7471;SDS011;3777;48.722;8.110;2022-12-01T04:51:18;20.70;;;13.80;;
7471;SDS011;3777;48.722;8.110;2022-12-01T04:53:47;19.93;;;12.87;;
7471;SDS011;3777;48.722;8.110;2022-12-01T04:56:14;21.57;;;14.07;;
7471;SDS011;3777;48.722;8.110;2022-12-01T04:58:41;21.87;;;13.87;;
7471;SDS011;3777;48.722;8.110;2022-12-01T05:01:09;21.63;;;14.43;;
7471;SDS011;3777;48.722;8.110;2022-12-01T05:03:38;20.27;;;13.50;;
7471;SDS011;3777;48.722;8.110;2022-12-01T05:06:07;19.83;;;13.83;;
7471;SDS011;3777;48.722;8.110;2022-12-01T05:08:36;21.30;;;14.37;;
7471;SDS011;3777;48.722;8.110;2022-12-01T05:11:05;24.10;;;15.67;;
7471;SDS011;3777;48.722;8.110;2022-12-01T05:13:32;23.20;;;14.00;;
7471;SDS011;3777;48.722;8.110;2022-12-01T05:16:03;22.30;;;13.83;;
7471;SDS011;3777;48.722;8.110;2022-12-01T05:18:31;22.03;;;14.00;;
7471;SDS011;3777;48.722;8.110;2022-12-01T05:20:58;21.73;;;14.10;;
7471;SDS011;3777;48.722;8.110;2022-12-01T05:23:24;22.80;;;15.00;;
7471;SDS011;3777;48.722;8.110;2022-12-01T05:25:53;21.23;;;14.13;;
7471;SDS011;3777;48.722;8.110;2022-12-01T05:28:22;23.50;;;14.87;;
7471;SDS011;3777;48.722;8.110;2022-12-01T05:30:53;23.00;;;14.53;;
7471;SDS011;3777;48.722;8.110;2022-12-01T05:33:21;21.80;;;14.63;;
7471;SDS011;3777;48.722;8.110;2022-12-01T05:35:50;22.83;;;14.03;;
7471;SDS011;3777;48.722;8.110;2022-12-01T05:38:17;21.17;;;14.37;;
7471;SDS011;3777;48.722;8.110;2022-12-01T05:40:48;21.50;;;14.50;;
7471;SDS011;3777;48.722;8.110;2022-12-01T05:43:15;21.50;;;14.43;;
7471;SDS011;3777;48.722;8.110;2022-12-01T05:45:43;21.53;;;14.60;;
7471;SDS011;3777;48.722;8.110;2022-12-01T05:48:10;22.57;;;14.40;;
7471;SDS011;3777;48.722;8.110;2022-12-01T05:50:38;21.03;;;13.83;;
7471;SDS011;3777;48.722;8.110;2022-12-01T05:53:05;22.70;;;14.53;;
7471;SDS011;3777;48.722;8.110;2022-12-01T05:55:32;23.13;;;15.03;;
7471;SDS011;3777;48.722;8.110;2022-12-01T05:57:59;20.70;;;13.80;;
7471;SDS011;3777;48.722;8.110;2022-12-01T06:00:26;23.23;;;15.13;;
7471;SDS011;3777;48.722;8.110;2022-12-01T06:02:55;22.80;;;15.03;;
7471;SDS011;3777;48.722;8.110;2022-12-01T06:05:22;25.73;;;15.70;;
7471;SDS011;3777;48.722;8.110;2022-12-01T06:07:49;24.67;;;14.70;;
7471;SDS011;3777;48.722;8.110;2022-12-01T06:10:16;24.10;;;15.73;;
7471;SDS011;3777;48.722;8.110;2022-12-01T06:12:43;24.03;;;16.60;;
7471;SDS011;3777;48.722;8.110;2022-12-01T06:15:10;24.17;;;15.27;;
7471;SDS011;3777;48.722;8.110;2022-12-01T06:17:38;25.00;;;16.47;;
7471;SDS011;3777;48.722;8.110;2022-12-01T06:20:07;23.73;;;15.57;;
7471;SDS011;3777;48.722;8.110;2022-12-01T06:22:35;24.57;;;16.23;;
7471;SDS011;3777;48.722;8.110;2022-12-01T06:25:02;24.57;;;16.03;;
7471;SDS011;3777;48.722;8.110;2022-12-01T06:27:30;25.83;;;16.07;;
7471;SDS011;3777;48.722;8.110;2022-12-01T06:29:57;23.57;;;14.90;;
7471;SDS011;3777;48.722;8.110;2022-12-01T06:32:23;24.53;;;15.40;;
7471;SDS011;3777;48.722;8.110;2022-12-01T06:34:50;25.17;;;16.40;;
7471;SDS011;3777;48.722;8.110;2022-12-01T06:37:19;24.40;;;15.70;;
7471;SDS011;3777;48.722;8.110;2022-12-01T06:39:46;25.33;;;15.80;;
7471;SDS011;3777;48.722;8.110;2022-12-01T06:42:13;22.63;;;15.70;;
7471;SDS011;3777;48.722;8.110;2022-12-01T06:44:40;24.10;;;16.17;;
7471;SDS011;3777;48.722;8.110;2022-12-01T06:47:06;24.13;;;16.03;;
7471;SDS011;3777;48.722;8.110;2022-12-01T06:49:33;24.40;;;15.93;;
7471;SDS011;3777;48.722;8.110;2022-12-01T06:52:02;28.87;;;17.40;;
7471;SDS011;3777;48.722;8.110;2022-12-01T06:54:30;29.03;;;17.17;;
7471;SDS011;3777;48.722;8.110;2022-12-01T06:56:57;24.13;;;15.60;;
7471;SDS011;3777;48.722;8.110;2022-12-01T06:59:24;24.97;;;15.90;;
7471;SDS011;3777;48.722;8.110;2022-12-01T07:01:51;24.77;;;16.30;;
7471;SDS011;3777;48.722;8.110;2022-12-01T07:04:18;29.03;;;17.70;;
7471;SDS011;3777;48.722;8.110;2022-12-01T07:06:45;23.93;;;16.17;;
7471;SDS011;3777;48.722;8.110;2022-12-01T07:09:12;27.10;;;16.87;;
7471;SDS011;3777;48.722;8.110;2022-12-01T07:11:40;26.40;;;16.83;;
7471;SDS011;3777;48.722;8.110;2022-12-01T07:14:10;28.47;;;17.43;;
7471;SDS011;3777;48.722;8.110;2022-12-01T07:16:44;24.17;;;16.07;;
7471;SDS011;3777;48.722;8.110;2022-12-01T07:19:11;27.87;;;16.60;;
7471;SDS011;3777;48.722;8.110;2022-12-01T07:21:38;28.47;;;16.57;;
7471;SDS011;3777;48.722;8.110;2022-12-01T07:24:05;27.93;;;17.03;;
7471;SDS011;3777;48.722;8.110;2022-12-01T07:26:32;26.07;;;16.20;;
7471;SDS011;3777;48.722;8.110;2022-12-01T07:29:01;28.97;;;17.10;;
7471;SDS011;3777;48.722;8.110;2022-12-01T07:31:28;26.33;;;16.80;;
7471;SDS011;3777;48.722;8.110;2022-12-01T07:33:55;27.70;;;17.17;;
7471;SDS011;3777;48.722;8.110;2022-12-01T07:36:21;24.80;;;16.63;;
7471;SDS011;3777;48.722;8.110;2022-12-01T07:38:48;29.17;;;17.90;;
7471;SDS011;3777;48.722;8.110;2022-12-01T07:41:16;27.00;;;17.30;;
7471;SDS011;3777;48.722;8.110;2022-12-01T07:43:44;26.37;;;17.23;;
7471;SDS011;3777;48.722;8.110;2022-12-01T07:46:13;27.23;;;17.07;;
7471;SDS011;3777;48.722;8.110;2022-12-01T07:48:41;28.37;;;17.30;;
7471;SDS011;3777;48.722;8.110;2022-12-01T07:51:09;27.43;;;16.97;;
7471;SDS011;3777;48.722;8.110;2022-12-01T07:53:39;26.63;;;17.57;;
7471;SDS011;3777;48.722;8.110;2022-12-01T07:56:06;27.37;;;17.47;;
7471;SDS011;3777;48.722;8.110;2022-12-01T07:58:33;26.17;;;16.97;;
7471;SDS011;3777;48.722;8.110;2022-12-01T08:01:04;26.23;;;16.67;;
7471;SDS011;3777;48.722;8.110;2022-12-01T08:03:33;27.80;;;17.17;;
7471;SDS011;3777;48.722;8.110;2022-12-01T08:06:00;25.57;;;16.97;;
7471;SDS011;3777;48.722;8.110;2022-12-01T08:08:28;28.20;;;16.73;;
7471;SDS011;3777;48.722;8.110;2022-12-01T08:10:58;27.30;;;17.70;;
7471;SDS011;3777;48.722;8.110;2022-12-01T08:13:26;26.90;;;17.13;;
7471;SDS011;3777;48.722;8.110;2022-12-01T08:15:53;25.90;;;17.30;;
7471;SDS011;3777;48.722;8.110;2022-12-01T08:18:20;27.30;;;17.47;;
7471;SDS011;3777;48.722;8.110;2022-12-01T08:20:48;27.47;;;17.00;;
7471;SDS011;3777;48.722;8.110;2022-12-01T08:23:16;28.43;;;18.40;;
7471;SDS011;3777;48.722;8.110;2022-12-01T08:25:43;24.57;;;16.17;;
7471;SDS011;3777;48.722;8.110;2022-12-01T08:28:10;26.30;;;17.17;;
7471;SDS011;3777;48.722;8.110;2022-12-01T08:30:36;25.53;;;16.43;;
7471;SDS011;3777;48.722;8.110;2022-12-01T08:33:03;24.00;;;16.33;;
7471;SDS011;3777;48.722;8.110;2022-12-01T08:35:30;27.57;;;17.10;;
7471;SDS011;3777;48.722;8.110;2022-12-01T08:38:02;25.70;;;17.10;;
7471;SDS011;3777;48.722;8.110;2022-12-01T08:40:29;27.27;;;17.60;;
7471;SDS011;3777;48.722;8.110;2022-12-01T08:42:56;27.33;;;17.03;;
7471;SDS011;3777;48.722;8.110;2022-12-01T08:45:23;25.90;;;16.50;;
7471;SDS011;3777;48.722;8.110;2022-12-01T08:47:50;24.57;;;16.10;;
7471;SDS011;3777;48.722;8.110;2022-12-01T08:50:18;25.23;;;16.30;;
7471;SDS011;3777;48.722;8.110;2022-12-01T08:52:45;25.57;;;16.60;;
7471;SDS011;3777;48.722;8.110;2022-12-01T08:55:14;24.13;;;15.80;;
7471;SDS011;3777;48.722;8.110;2022-12-01T08:57:41;26.03;;;16.63;;
7471;SDS011;3777;48.722;8.110;2022-12-01T09:00:08;26.80;;;16.73;;
7471;SDS011;3777;48.722;8.110;2022-12-01T09:02:36;25.27;;;16.23;;
7471;SDS011;3777;48.722;8.110;2022-12-01T09:05:03;25.57;;;16.80;;
7471;SDS011;3777;48.722;8.110;2022-12-01T09:07:31;24.50;;;15.97;;
7471;SDS011;3777;48.722;8.110;2022-12-01T09:09:58;25.20;;;15.93;;
7471;SDS011;3777;48.722;8.110;2022-12-01T09:12:27;23.90;;;15.63;;
7471;SDS011;3777;48.722;8.110;2022-12-01T09:14:54;25.27;;;15.83;;
7471;SDS011;3777;48.722;8.110;2022-12-01T09:17:21;22.33;;;15.93;;
7471;SDS011;3777;48.722;8.110;2022-12-01T09:19:48;23.47;;;15.87;;
7471;SDS011;3777;48.722;8.110;2022-12-01T09:22:15;23.20;;;15.07;;
7471;SDS011;3777;48.722;8.110;2022-12-01T09:24:42;26.10;;;15.80;;
7471;SDS011;3777;48.722;8.110;2022-12-01T09:27:09;24.23;;;15.53;;
7471;SDS011;3777;48.722;8.110;2022-12-01T09:29:38;24.57;;;15.67;;
7471;SDS011;3777;48.722;8.110;2022-12-01T09:32:05;23.53;;;15.93;;
7471;SDS011;3777;48.722;8.110;2022-12-01T09:34:32;23.03;;;15.93;;
7471;SDS011;3777;48.722;8.110;2022-12-01T09:36:59;23.60;;;15.17;;
7471;SDS011;3777;48.722;8.110;2022-12-01T09:39:26;22.53;;;14.67;;
7471;SDS011;3777;48.722;8.110;2022-12-01T09:41:54;23.63;;;16.37;;
7471;SDS011;3777;48.722;8.110;2022-12-01T09:44:33;25.27;;;16.87;;
7471;SDS011;3777;48.722;8.110;2022-12-01T09:47:08;24.97;;;15.60;;
7471;SDS011;3777;48.722;8.110;2022-12-01T09:49:48;23.20;;;15.87;;
7471;SDS011;3777;48.722;8.110;2022-12-01T09:52:19;27.00;;;16.27;;
7471;SDS011;3777;48.722;8.110;2022-12-01T09:54:49;22.87;;;15.17;;
7471;SDS011;3777;48.722;8.110;2022-12-01T09:57:17;24.00;;;15.57;;
7471;SDS011;3777;48.722;8.110;2022-12-01T09:59:52;23.43;;;16.27;;
7471;SDS011;3777;48.722;8.110;2022-12-01T10:02:23;24.57;;;16.37;;
7471;SDS011;3777;48.722;8.110;2022-12-01T10:04:55;22.40;;;16.23;;
7471;SDS011;3777;48.722;8.110;2022-12-01T10:07:25;23.17;;;15.83;;
7471;SDS011;3777;48.722;8.110;2022-12-01T10:09:56;24.43;;;16.30;;
7471;SDS011;3777;48.722;8.110;2022-12-01T10:12:25;21.60;;;15.40;;
7471;SDS011;3777;48.722;8.110;2022-12-01T10:14:57;22.40;;;15.07;;
7471;SDS011;3777;48.722;8.110;2022-12-01T10:17:38;24.17;;;16.40;;
7471;SDS011;3777;48.722;8.110;2022-12-01T10:20:13;23.17;;;15.77;;
7471;SDS011;3777;48.722;8.110;2022-12-01T10:22:47;25.70;;;15.73;;
7471;SDS011;3777;48.722;8.110;2022-12-01T10:25:31;25.13;;;16.37;;
7471;SDS011;3777;48.722;8.110;2022-12-01T10:28:11;22.40;;;15.27;;
7471;SDS011;3777;48.722;8.110;2022-12-01T10:30:51;22.47;;;15.07;;
7471;SDS011;3777;48.722;8.110;2022-12-01T10:33:24;22.77;;;15.00;;
7471;SDS011;3777;48.722;8.110;2022-12-01T10:35:53;22.63;;;15.40;;
7471;SDS011;3777;48.722;8.110;2022-12-01T10:38:22;22.57;;;15.17;;
7471;SDS011;3777;48.722;8.110;2022-12-01T10:40:52;22.23;;;15.00;;
7471;SDS011;3777;48.722;8.110;2022-12-01T10:43:23;22.03;;;14.37;;
7471;SDS011;3777;48.722;8.110;2022-12-01T10:45:57;21.07;;;14.73;;
7471;SDS011;3777;48.722;8.110;2022-12-01T10:48:27;20.47;;;14.27;;
7471;SDS011;3777;48.722;8.110;2022-12-01T10:50:55;21.43;;;14.17;;
7471;SDS011;3777;48.722;8.110;2022-12-01T10:53:39;21.97;;;14.53;;
7471;SDS011;3777;48.722;8.110;2022-12-01T10:56:07;22.50;;;14.33;;
7471;SDS011;3777;48.722;8.110;2022-12-01T10:58:41;26.17;;;15.43;;
7471;SDS011;3777;48.722;8.110;2022-12-01T11:01:14;20.67;;;14.33;;
7471;SDS011;3777;48.722;8.110;2022-12-01T11:03:49;22.83;;;13.83;;
7471;SDS011;3777;48.722;8.110;2022-12-01T11:06:22;21.83;;;14.17;;
7471;SDS011;3777;48.722;8.110;2022-12-01T11:08:51;19.77;;;13.90;;
7471;SDS011;3777;48.722;8.110;2022-12-01T11:11:28;20.43;;;14.40;;
7471;SDS011;3777;48.722;8.110;2022-12-01T11:13:57;21.93;;;14.03;;
7471;SDS011;3777;48.722;8.110;2022-12-01T11:16:34;22.17;;;15.10;;
7471;SDS011;3777;48.722;8.110;2022-12-01T11:19:15;21.33;;;14.40;;
7471;SDS011;3777;48.722;8.110;2022-12-01T11:21:46;22.60;;;14.40;;
7471;SDS011;3777;48.722;8.110;2022-12-01T11:24:24;25.40;;;15.43;;
7471;SDS011;3777;48.722;8.110;2022-12-01T11:26:54;23.33;;;14.67;;
7471;SDS011;3777;48.722;8.110;2022-12-01T11:29:26;24.03;;;15.10;;
7471;SDS011;3777;48.722;8.110;2022-12-01T11:31:59;23.20;;;14.77;;
7471;SDS011;3777;48.722;8.110;2022-12-01T11:34:29;21.47;;;14.27;;
7471;SDS011;3777;48.722;8.110;2022-12-01T11:37:00;20.60;;;14.47;;
7471;SDS011;3777;48.722;8.110;2022-12-01T11:39:30;23.10;;;15.20;;
7471;SDS011;3777;48.722;8.110;2022-12-01T11:41:59;21.77;;;14.23;;
7471;SDS011;3777;48.722;8.110;2022-12-01T11:44:27;21.37;;;13.43;;
7471;SDS011;3777;48.722;8.110;2022-12-01T11:46:56;19.77;;;13.83;;
7471;SDS011;3777;48.722;8.110;2022-12-01T11:49:40;21.93;;;14.40;;
7471;SDS011;3777;48.722;8.110;2022-12-01T11:52:16;22.97;;;14.77;;
7471;SDS011;3777;48.722;8.110;2022-12-01T11:54:54;23.27;;;15.27;;
7471;SDS011;3777;48.722;8.110;2022-12-01T11:57:22;22.53;;;14.60;;
7471;SDS011;3777;48.722;8.110;2022-12-01T11:59:50;19.23;;;13.97;;
7471;SDS011;3777;48.722;8.110;2022-12-01T12:02:19;21.57;;;14.57;;
7471;SDS011;3777;48.722;8.110;2022-12-01T12:05:00;21.00;;;13.77;;
7471;SDS011;3777;48.722;8.110;2022-12-01T12:07:46;21.73;;;14.27;;
7471;SDS011;3777;48.722;8.110;2022-12-01T12:10:24;21.97;;;14.17;;
7471;SDS011;3777;48.722;8.110;2022-12-01T12:13:14;21.73;;;14.47;;
7471;SDS011;3777;48.722;8.110;2022-12-01T12:15:52;19.10;;;13.27;;
7471;SDS011;3777;48.722;8.110;2022-12-01T12:18:33;20.33;;;13.57;;
7471;SDS011;3777;48.722;8.110;2022-12-01T12:21:13;22.50;;;14.47;;
7471;SDS011;3777;48.722;8.110;2022-12-01T12:23:56;21.03;;;14.40;;
7471;SDS011;3777;48.722;8.110;2022-12-01T12:26:38;24.27;;;15.53;;
7471;SDS011;3777;48.722;8.110;2022-12-01T12:29:21;22.23;;;14.53;;
7471;SDS011;3777;48.722;8.110;2022-12-01T12:32:05;23.70;;;15.43;;
7471;SDS011;3777;48.722;8.110;2022-12-01T12:34:45;19.53;;;13.50;;
7471;SDS011;3777;48.722;8.110;2022-12-01T12:37:20;23.23;;;13.97;;
7471;SDS011;3777;48.722;8.110;2022-12-01T12:39:58;20.77;;;13.97;;
7471;SDS011;3777;48.722;8.110;2022-12-01T12:42:42;21.60;;;15.03;;
7471;SDS011;3777;48.722;8.110;2022-12-01T12:45:15;19.77;;;12.97;;
7471;SDS011;3777;48.722;8.110;2022-12-01T12:47:57;20.00;;;13.47;;
7471;SDS011;3777;48.722;8.110;2022-12-01T12:50:38;21.63;;;14.13;;
7471;SDS011;3777;48.722;8.110;2022-12-01T12:53:15;20.20;;;13.40;;
7471;SDS011;3777;48.722;8.110;2022-12-01T12:55:50;20.33;;;13.63;;
7471;SDS011;3777;48.722;8.110;2022-12-01T12:58:21;21.47;;;14.87;;
7471;SDS011;3777;48.722;8.110;2022-12-01T13:00:51;19.03;;;13.60;;
7471;SDS011;3777;48.722;8.110;2022-12-01T13:03:23;18.77;;;13.97;;
7471;SDS011;3777;48.722;8.110;2022-12-01T13:05:57;22.37;;;14.03;;
7471;SDS011;3777;48.722;8.110;2022-12-01T13:08:33;22.17;;;14.00;;
7471;SDS011;3777;48.722;8.110;2022-12-01T13:11:03;21.83;;;14.63;;
7471;SDS011;3777;48.722;8.110;2022-12-01T13:13:38;21.57;;;14.20;;
7471;SDS011;3777;48.722;8.110;2022-12-01T13:16:09;19.07;;;13.83;;
7471;SDS011;3777;48.722;8.110;2022-12-01T13:18:39;21.60;;;14.77;;
7471;SDS011;3777;48.722;8.110;2022-12-01T13:21:12;22.00;;;14.37;;
7471;SDS011;3777;48.722;8.110;2022-12-01T13:23:44;21.13;;;13.40;;
7471;SDS011;3777;48.722;8.110;2022-12-01T13:26:12;20.70;;;14.20;;
7471;SDS011;3777;48.722;8.110;2022-12-01T13:28:43;19.93;;;13.87;;
7471;SDS011;3777;48.722;8.110;2022-12-01T13:31:13;19.93;;;13.83;;
7471;SDS011;3777;48.722;8.110;2022-12-01T13:33:43;19.60;;;13.97;;
7471;SDS011;3777;48.722;8.110;2022-12-01T13:36:18;21.40;;;14.30;;
7471;SDS011;3777;48.722;8.110;2022-12-01T13:38:51;35.23;;;22.13;;
7471;SDS011;3777;48.722;8.110;2022-12-01T13:41:25;22.57;;;15.23;;
7471;SDS011;3777;48.722;8.110;2022-12-01T13:43:58;22.33;;;14.00;;
7471;SDS011;3777;48.722;8.110;2022-12-01T13:46:29;19.80;;;13.60;;
7471;SDS011;3777;48.722;8.110;2022-12-01T13:48:58;20.27;;;14.10;;
7471;SDS011;3777;48.722;8.110;2022-12-01T13:51:26;20.57;;;14.23;;
7471;SDS011;3777;48.722;8.110;2022-12-01T13:54:34;20.67;;;13.77;;
7471;SDS011;3777;48.722;8.110;2022-12-01T13:57:03;21.10;;;14.07;;
7471;SDS011;3777;48.722;8.110;2022-12-01T13:59:37;23.60;;;14.77;;
7471;SDS011;3777;48.722;8.110;2022-12-01T14:02:22;20.17;;;14.23;;
7471;SDS011;3777;48.722;8.110;2022-12-01T14:04:50;20.57;;;13.73;;
7471;SDS011;3777;48.722;8.110;2022-12-01T14:07:21;22.53;;;13.97;;
7471;SDS011;3777;48.722;8.110;2022-12-01T14:09:56;28.03;;;16.50;;
7471;SDS011;3777;48.722;8.110;2022-12-01T14:12:32;29.77;;;17.40;;
7471;SDS011;3777;48.722;8.110;2022-12-01T14:15:03;25.13;;;16.50;;
7471;SDS011;3777;48.722;8.110;2022-12-01T14:17:46;20.73;;;13.83;;
7471;SDS011;3777;48.722;8.110;2022-12-01T14:20:28;28.27;;;16.47;;
7471;SDS011;3777;48.722;8.110;2022-12-01T14:32:02;19.40;;;14.03;;
7471;SDS011;3777;48.722;8.110;2022-12-01T14:34:45;21.57;;;13.73;;
7471;SDS011;3777;48.722;8.110;2022-12-01T14:37:26;19.17;;;13.13;;
7471;SDS011;3777;48.722;8.110;2022-12-01T14:40:03;18.67;;;13.30;;
7471;SDS011;3777;48.722;8.110;2022-12-01T14:42:34;20.60;;;13.60;;
7471;SDS011;3777;48.722;8.110;2022-12-01T14:45:22;21.77;;;13.53;;
7471;SDS011;3777;48.722;8.110;2022-12-01T14:47:55;21.57;;;13.83;;
7471;SDS011;3777;48.722;8.110;2022-12-01T14:50:28;20.03;;;13.67;;
7471;SDS011;3777;48.722;8.110;2022-12-01T14:53:03;20.53;;;13.47;;
7471;SDS011;3777;48.722;8.110;2022-12-01T14:55:36;20.73;;;14.63;;
7471;SDS011;3777;48.722;8.110;2022-12-01T14:58:06;21.13;;;14.23;;
7471;SDS011;3777;48.722;8.110;2022-12-01T15:00:38;21.47;;;13.90;;
7471;SDS011;3777;48.722;8.110;2022-12-01T15:03:20;20.13;;;13.67;;
7471;SDS011;3777;48.722;8.110;2022-12-01T15:05:49;19.70;;;13.23;;
7471;SDS011;3777;48.722;8.110;2022-12-01T15:08:18;22.67;;;14.70;;
7471;SDS011;3777;48.722;8.110;2022-12-01T15:10:49;21.40;;;14.23;;
7471;SDS011;3777;48.722;8.110;2022-12-01T15:13:22;20.27;;;13.93;;
7471;SDS011;3777;48.722;8.110;2022-12-01T15:15:53;22.30;;;14.70;;
7471;SDS011;3777;48.722;8.110;2022-12-01T15:18:22;24.97;;;14.93;;
7471;SDS011;3777;48.722;8.110;2022-12-01T15:20:54;20.03;;;13.07;;
7471;SDS011;3777;48.722;8.110;2022-12-01T15:23:24;19.90;;;13.53;;